createdAt,value
2018-05-10T00:00:52.983Z,973.40
2018-05-10T00:01:52.926Z,973.47
2018-05-10T00:02:52.870Z,973.41
2018-05-10T00:03:52.813Z,973.39
2018-05-10T00:04:52.758Z,973.39
2018-05-10T00:05:52.703Z,973.44
2018-05-10T00:06:52.646Z,973.43
2018-05-10T00:07:52.661Z,973.39
2018-05-10T00:08:52.534Z,973.40
2018-05-10T00:09:52.478Z,973.40
2018-05-10T00:10:52.421Z,973.38
2018-05-10T00:11:52.368Z,973.37
2018-05-10T00:12:52.310Z,973.39
2018-05-10T00:13:52.255Z,973.33
2018-05-10T00:14:52.201Z,973.25
2018-05-10T00:15:52.215Z,973.26
2018-05-10T00:16:52.095Z,973.28
2018-05-10T00:17:52.033Z,973.27
2018-05-10T00:18:51.976Z,973.22
2018-05-10T00:19:51.919Z,973.28
2018-05-10T00:20:51.864Z,973.22
2018-05-10T00:21:51.807Z,973.22
2018-05-10T00:22:51.753Z,973.18
2018-05-10T00:23:51.695Z,973.18
2018-05-10T00:24:51.640Z,973.18
2018-05-10T00:25:51.584Z,973.23
2018-05-10T00:26:51.529Z,973.19
2018-05-10T00:27:51.472Z,973.22
2018-05-10T00:28:51.420Z,973.18
2018-05-10T00:29:51.367Z,973.23
2018-05-10T00:30:51.305Z,973.23
2018-05-10T00:31:51.251Z,973.17
2018-05-10T00:32:51.193Z,973.18
2018-05-10T00:33:51.139Z,973.19
2018-05-10T00:34:51.082Z,973.22
2018-05-10T00:35:51.027Z,973.19
2018-05-10T00:36:50.971Z,973.19
2018-05-10T00:37:50.914Z,973.17
2018-05-10T00:38:50.858Z,973.20
2018-05-10T00:39:50.803Z,973.21
2018-05-10T00:40:50.749Z,973.19
2018-05-10T00:41:50.690Z,973.17
2018-05-10T00:42:50.635Z,973.22
2018-05-10T00:43:50.579Z,973.13
2018-05-10T00:44:50.522Z,973.11
2018-05-10T00:45:50.467Z,973.16
2018-05-10T00:46:50.408Z,973.19
2018-05-10T00:47:50.352Z,973.23
2018-05-10T00:48:50.298Z,973.16
2018-05-10T00:49:50.244Z,973.22
2018-05-10T00:50:50.183Z,973.15
2018-05-10T00:51:50.129Z,973.16
2018-05-10T00:52:50.072Z,973.18
2018-05-10T00:53:50.017Z,973.19
2018-05-10T00:54:49.962Z,973.22
2018-05-10T00:55:49.906Z,973.19
2018-05-10T00:56:49.847Z,973.22
2018-05-10T00:57:49.793Z,973.21
2018-05-10T00:58:49.735Z,973.27
2018-05-10T00:59:49.679Z,973.22
2018-05-10T01:00:49.623Z,973.27
2018-05-10T01:01:49.569Z,973.22
2018-05-10T01:02:49.510Z,973.22
2018-05-10T01:03:49.455Z,973.19
2018-05-10T01:04:49.476Z,973.21
2018-05-10T01:05:49.345Z,973.20
2018-05-10T01:06:49.289Z,973.21
2018-05-10T01:07:50.179Z,973.23
2018-05-10T01:08:49.178Z,973.21
2018-05-10T01:09:49.120Z,973.23
2018-05-10T01:10:49.060Z,973.24
2018-05-10T01:11:49.006Z,973.26
2018-05-10T01:12:48.953Z,973.29
2018-05-10T01:13:48.894Z,973.27
2018-05-10T01:14:48.840Z,973.23
2018-05-10T01:15:48.781Z,973.30
2018-05-10T01:16:48.725Z,973.28
2018-05-10T01:17:48.669Z,973.35
2018-05-10T01:18:48.613Z,973.37
2018-05-10T01:19:48.558Z,973.37
2018-05-10T01:20:48.499Z,973.39
2018-05-10T01:21:48.446Z,973.36
2018-05-10T01:22:48.387Z,973.38
2018-05-10T01:23:48.330Z,973.37
2018-05-10T01:24:48.278Z,973.36
2018-05-10T01:25:48.223Z,973.39
2018-05-10T01:26:48.162Z,973.40
2018-05-10T01:27:48.105Z,973.38
2018-05-10T01:28:48.050Z,973.36
2018-05-10T01:29:47.995Z,973.35
2018-05-10T01:30:47.943Z,973.37
2018-05-10T01:31:47.878Z,973.33
2018-05-10T01:32:47.823Z,973.38
2018-05-10T01:33:47.765Z,973.34
2018-05-10T01:34:47.708Z,973.29
2018-05-10T01:35:47.652Z,973.31
2018-05-10T01:36:47.596Z,973.26
2018-05-10T01:37:47.538Z,973.25
2018-05-10T01:38:47.481Z,973.26
2018-05-10T01:39:47.426Z,973.27
2018-05-10T01:40:47.373Z,973.31
2018-05-10T01:41:47.313Z,973.26
2018-05-10T01:42:47.255Z,973.25
2018-05-10T01:43:47.200Z,973.29
2018-05-10T01:44:47.141Z,973.30
2018-05-10T01:45:47.085Z,973.33
2018-05-10T01:46:47.027Z,973.29
2018-05-10T01:47:46.971Z,973.32
2018-05-10T01:48:46.915Z,973.33
2018-05-10T01:49:46.858Z,973.30
2018-05-10T01:50:46.800Z,973.36
2018-05-10T01:51:46.746Z,973.38
2018-05-10T01:52:46.686Z,973.37
2018-05-10T01:53:46.630Z,973.40
2018-05-10T01:54:46.576Z,973.44
2018-05-10T01:55:46.516Z,973.41
2018-05-10T01:56:46.459Z,973.41
2018-05-10T01:57:46.404Z,973.43
2018-05-10T01:58:46.346Z,973.45
2018-05-10T01:59:46.289Z,973.46
2018-05-10T02:00:46.237Z,973.41
2018-05-10T02:01:46.176Z,973.42
2018-05-10T02:02:46.117Z,973.47
2018-05-10T02:03:46.061Z,973.45
2018-05-10T02:04:46.004Z,973.47
2018-05-10T02:05:45.949Z,973.47
2018-05-10T02:06:45.890Z,973.48
2018-05-10T02:07:45.833Z,973.48
2018-05-10T02:08:45.777Z,973.50
2018-05-10T02:09:45.721Z,973.52
2018-05-10T02:10:45.662Z,973.47
2018-05-10T02:11:45.606Z,973.46
2018-05-10T02:12:45.557Z,973.53
2018-05-10T02:13:45.495Z,973.49
2018-05-10T02:14:45.525Z,973.51
2018-05-10T02:15:45.383Z,973.50
2018-05-10T02:16:45.321Z,973.55
2018-05-10T02:17:45.265Z,973.60
2018-05-10T02:18:45.208Z,973.58
2018-05-10T02:19:45.148Z,973.59
2018-05-10T02:20:45.094Z,973.59
2018-05-10T02:21:45.036Z,973.59
2018-05-10T02:22:44.978Z,973.63
2018-05-10T02:23:44.919Z,973.58
2018-05-10T02:24:44.866Z,973.57
2018-05-10T02:25:44.806Z,973.59
2018-05-10T02:26:44.750Z,973.56
2018-05-10T02:27:44.693Z,973.62
2018-05-10T02:28:44.638Z,973.59
2018-05-10T02:29:44.621Z,973.63
2018-05-10T02:30:44.524Z,973.58
2018-05-10T02:31:44.464Z,973.60
2018-05-10T02:32:44.407Z,973.60
2018-05-10T02:33:44.350Z,973.64
2018-05-10T02:34:44.292Z,973.63
2018-05-10T02:35:44.236Z,973.65
2018-05-10T02:36:44.179Z,973.62
2018-05-10T02:37:44.122Z,973.60
2018-05-10T02:38:44.064Z,973.65
2018-05-10T02:39:44.008Z,973.62
2018-05-10T02:40:43.951Z,973.65
2018-05-10T02:41:43.894Z,973.64
2018-05-10T02:42:43.835Z,973.64
2018-05-10T02:43:43.777Z,973.68
2018-05-10T02:44:43.722Z,973.65
2018-05-10T02:45:43.666Z,973.72
2018-05-10T02:46:43.612Z,973.73
2018-05-10T02:47:43.551Z,973.72
2018-05-10T02:48:43.494Z,973.72
2018-05-10T02:49:43.441Z,973.77
2018-05-10T02:50:43.381Z,973.78
2018-05-10T02:51:43.325Z,973.82
2018-05-10T02:52:43.265Z,973.82
2018-05-10T02:53:43.211Z,973.79
2018-05-10T02:54:43.151Z,973.83
2018-05-10T02:55:43.093Z,973.81
2018-05-10T02:56:43.038Z,973.84
2018-05-10T02:57:42.980Z,973.85
2018-05-10T02:58:42.926Z,973.86
2018-05-10T02:59:42.866Z,973.84
2018-05-10T03:00:42.809Z,973.85
2018-05-10T03:01:42.755Z,973.83
2018-05-10T03:02:42.698Z,973.91
2018-05-10T03:03:42.642Z,973.86
2018-05-10T03:04:42.580Z,973.94
2018-05-10T03:05:42.523Z,973.94
2018-05-10T03:06:42.468Z,973.96
2018-05-10T03:07:42.409Z,973.95
2018-05-10T03:08:42.352Z,974.00
2018-05-10T03:09:42.319Z,974.01
2018-05-10T03:10:42.239Z,973.98
2018-05-10T03:11:42.180Z,974.04
2018-05-10T03:12:42.123Z,974.02
2018-05-10T03:13:42.066Z,974.03
2018-05-10T03:14:42.008Z,974.01
2018-05-10T03:15:41.951Z,974.05
2018-05-10T03:16:41.894Z,974.07
2018-05-10T03:17:41.842Z,974.02
2018-05-10T03:18:41.783Z,974.08
2018-05-10T03:19:41.725Z,974.06
2018-05-10T03:20:41.669Z,974.14
2018-05-10T03:21:41.610Z,974.07
2018-05-10T03:22:41.554Z,974.09
2018-05-10T03:23:41.496Z,974.04
2018-05-10T03:24:41.439Z,974.08
2018-05-10T03:25:41.383Z,974.06
2018-05-10T03:26:41.328Z,974.08
2018-05-10T03:27:41.269Z,974.08
2018-05-10T03:28:41.211Z,974.08
2018-05-10T03:29:41.164Z,974.07
2018-05-10T03:30:41.099Z,974.08
2018-05-10T03:31:41.041Z,974.12
2018-05-10T03:32:40.982Z,974.06
2018-05-10T03:33:40.927Z,974.05
2018-05-10T03:34:40.870Z,974.07
2018-05-10T03:35:40.812Z,974.11
2018-05-10T03:36:40.756Z,974.09
2018-05-10T03:37:40.699Z,974.13
2018-05-10T03:38:40.641Z,974.11
2018-05-10T03:39:40.587Z,974.09
2018-05-10T03:40:40.528Z,974.11
2018-05-10T03:41:40.473Z,974.14
2018-05-10T03:42:40.417Z,974.08
2018-05-10T03:43:40.360Z,974.10
2018-05-10T03:44:40.302Z,974.16
2018-05-10T03:45:40.245Z,974.15
2018-05-10T03:46:40.187Z,974.13
2018-05-10T03:47:40.133Z,974.17
2018-05-10T03:48:40.074Z,974.17
2018-05-10T03:49:40.017Z,974.17
2018-05-10T03:50:39.961Z,974.14
2018-05-10T03:51:39.900Z,974.14
2018-05-10T03:52:39.844Z,974.17
2018-05-10T03:53:39.791Z,974.21
2018-05-10T03:54:39.731Z,974.21
2018-05-10T03:55:39.675Z,974.20
2018-05-10T03:56:39.627Z,974.25
2018-05-10T03:57:39.559Z,974.28
2018-05-10T03:58:39.506Z,974.30
2018-05-10T03:59:39.445Z,974.32
2018-05-10T04:00:39.388Z,974.35
2018-05-10T04:01:39.331Z,974.33
2018-05-10T04:02:39.273Z,974.36
2018-05-10T04:03:39.221Z,974.39
2018-05-10T04:04:39.158Z,974.35
2018-05-10T04:05:39.101Z,974.36
2018-05-10T04:06:39.044Z,974.36
2018-05-10T04:07:38.988Z,974.34
2018-05-10T04:08:38.931Z,974.39
2018-05-10T04:09:38.876Z,974.41
2018-05-10T04:10:38.816Z,974.38
2018-05-10T04:11:38.758Z,974.48
2018-05-10T04:12:38.702Z,974.42
2018-05-10T04:13:38.646Z,974.42
2018-05-10T04:14:38.586Z,974.41
2018-05-10T04:15:38.541Z,974.44
2018-05-10T04:16:38.473Z,974.47
2018-05-10T04:17:38.415Z,974.46
2018-05-10T04:18:38.359Z,974.49
2018-05-10T04:19:38.303Z,974.48
2018-05-10T04:20:38.245Z,974.45
2018-05-10T04:21:38.189Z,974.47
2018-05-10T04:22:38.131Z,974.51
2018-05-10T04:23:38.074Z,974.53
2018-05-10T04:24:38.017Z,974.50
2018-05-10T04:25:37.960Z,974.52
2018-05-10T04:26:37.903Z,974.53
2018-05-10T04:27:37.846Z,974.54
2018-05-10T04:28:37.789Z,974.52
2018-05-10T04:29:37.734Z,974.50
2018-05-10T04:30:37.677Z,974.51
2018-05-10T04:31:37.619Z,974.49
2018-05-10T04:32:37.563Z,974.42
2018-05-10T04:33:37.506Z,974.42
2018-05-10T04:34:37.458Z,974.40
2018-05-10T04:35:37.392Z,974.44
2018-05-10T04:36:37.337Z,974.46
2018-05-10T04:37:37.282Z,974.45
2018-05-10T04:38:37.223Z,974.45
2018-05-10T04:39:37.167Z,974.50
2018-05-10T04:40:37.111Z,974.47
2018-05-10T04:41:37.053Z,974.47
2018-05-10T04:42:36.998Z,974.52
2018-05-10T04:43:36.941Z,974.48
2018-05-10T04:44:36.886Z,974.51
2018-05-10T04:45:36.828Z,974.51
2018-05-10T04:46:36.780Z,974.53
2018-05-10T04:47:36.716Z,974.58
2018-05-10T04:48:36.663Z,974.53
2018-05-10T04:49:36.605Z,974.55
2018-05-10T04:50:36.550Z,974.62
2018-05-10T04:51:36.492Z,974.61
2018-05-10T04:52:36.436Z,974.62
2018-05-10T04:53:36.382Z,974.61
2018-05-10T04:54:36.322Z,974.66
2018-05-10T04:55:36.266Z,974.70
2018-05-10T04:56:36.210Z,974.73
2018-05-10T04:57:36.155Z,974.74
2018-05-10T04:58:36.098Z,974.73
2018-05-10T04:59:36.041Z,974.74
2018-05-10T05:00:35.986Z,974.79
2018-05-10T05:01:35.930Z,974.79
2018-05-10T05:02:35.872Z,974.80
2018-05-10T05:03:35.816Z,974.80
2018-05-10T05:04:35.760Z,974.86
2018-05-10T05:05:35.702Z,974.90
2018-05-10T05:06:35.647Z,974.93
2018-05-10T05:07:35.590Z,974.89
2018-05-10T05:08:35.536Z,974.92
2018-05-10T05:09:35.478Z,974.84
2018-05-10T05:10:35.427Z,974.84
2018-05-10T05:11:35.368Z,974.90
2018-05-10T05:12:35.309Z,974.86
2018-05-10T05:13:35.252Z,974.84
2018-05-10T05:14:35.195Z,974.85
2018-05-10T05:15:35.142Z,974.78
2018-05-10T05:16:35.083Z,974.81
2018-05-10T05:17:35.028Z,974.78
2018-05-10T05:18:34.972Z,974.78
2018-05-10T05:19:34.913Z,974.75
2018-05-10T05:20:34.858Z,974.80
2018-05-10T05:21:34.829Z,974.79
2018-05-10T05:22:34.745Z,974.78
2018-05-10T05:23:34.689Z,974.81
2018-05-10T05:24:34.634Z,974.82
2018-05-10T05:25:34.577Z,974.84
2018-05-10T05:26:34.524Z,974.92
2018-05-10T05:27:34.465Z,974.93
2018-05-10T05:28:34.410Z,974.91
2018-05-10T05:29:34.355Z,974.92
2018-05-10T05:30:34.297Z,974.92
2018-05-10T05:31:34.243Z,974.97
2018-05-10T05:32:34.193Z,974.98
2018-05-10T05:33:34.134Z,975.03
2018-05-10T05:34:34.077Z,975.05
2018-05-10T05:35:34.130Z,975.06
2018-05-10T05:36:34.046Z,975.03
2018-05-10T05:37:33.916Z,975.08
2018-05-10T05:38:33.857Z,975.07
2018-05-10T05:39:33.801Z,975.10
2018-05-10T05:40:33.747Z,975.15
2018-05-10T05:41:33.701Z,975.19
2018-05-10T05:42:33.637Z,975.25
2018-05-10T05:43:33.643Z,975.21
2018-05-10T05:44:33.527Z,975.22
2018-05-10T05:45:33.472Z,975.20
2018-05-10T05:46:33.420Z,975.27
2018-05-10T05:47:33.362Z,975.24
2018-05-10T05:48:33.308Z,975.21
2018-05-10T05:49:33.255Z,975.26
2018-05-10T05:50:33.212Z,975.24
2018-05-10T05:51:33.145Z,975.25
2018-05-10T05:52:33.095Z,975.32
2018-05-10T05:53:33.039Z,975.30
2018-05-10T05:54:32.980Z,975.35
2018-05-10T05:55:32.924Z,975.33
2018-05-10T05:56:32.869Z,975.36
2018-05-10T05:57:32.826Z,975.33
2018-05-10T05:58:32.761Z,975.35
2018-05-10T05:59:32.705Z,975.40
2018-05-10T06:00:32.654Z,975.43
2018-05-10T06:01:32.597Z,975.43
2018-05-10T06:02:32.541Z,975.45
2018-05-10T06:03:32.488Z,975.43
2018-05-10T06:04:32.434Z,975.44
2018-05-10T06:05:32.378Z,975.41
2018-05-10T06:06:32.324Z,975.42
2018-05-10T06:07:32.270Z,975.46
2018-05-10T06:08:32.222Z,975.42
2018-05-10T06:09:32.161Z,975.43
2018-05-10T06:10:32.106Z,975.47
2018-05-10T06:11:32.052Z,975.49
2018-05-10T06:12:31.997Z,975.48
2018-05-10T06:13:31.945Z,975.53
2018-05-10T06:14:31.890Z,975.54
2018-05-10T06:15:31.917Z,975.55
2018-05-10T06:16:31.782Z,975.53
2018-05-10T06:17:31.730Z,975.56
2018-05-10T06:18:31.674Z,975.57
2018-05-10T06:19:31.620Z,975.58
2018-05-10T06:20:31.567Z,975.55
2018-05-10T06:21:31.516Z,975.56
2018-05-10T06:22:31.459Z,975.60
2018-05-10T06:23:31.406Z,975.60
2018-05-10T06:24:31.353Z,975.61
2018-05-10T06:25:31.300Z,975.55
2018-05-10T06:26:31.249Z,975.57
2018-05-10T06:27:31.201Z,975.62
2018-05-10T06:28:31.140Z,975.61
2018-05-10T06:29:31.089Z,975.64
2018-05-10T06:30:31.035Z,975.57
2018-05-10T06:31:30.981Z,975.57
2018-05-10T06:32:30.929Z,975.61
2018-05-10T06:33:30.877Z,975.58
2018-05-10T06:34:30.823Z,975.58
2018-05-10T06:35:30.770Z,975.63
2018-05-10T06:36:30.718Z,975.64
2018-05-10T06:37:30.667Z,975.66
2018-05-10T06:38:30.612Z,975.64
2018-05-10T06:39:30.563Z,975.68
2018-05-10T06:40:30.508Z,975.69
2018-05-10T06:41:30.552Z,975.69
2018-05-10T06:42:30.402Z,975.72
2018-05-10T06:43:30.350Z,975.76
2018-05-10T06:44:30.296Z,975.75
2018-05-10T06:45:30.250Z,975.73
2018-05-10T06:46:30.193Z,975.73
2018-05-10T06:47:30.140Z,975.67
2018-05-10T06:48:30.089Z,975.69
2018-05-10T06:49:30.041Z,975.76
2018-05-10T06:50:29.984Z,975.72
2018-05-10T06:51:29.933Z,975.77
2018-05-10T06:52:29.879Z,975.77
2018-05-10T06:53:29.831Z,975.76
2018-05-10T06:54:29.805Z,975.67
2018-05-10T06:55:29.722Z,975.65
2018-05-10T06:56:29.670Z,975.69
2018-05-10T06:57:29.621Z,975.70
2018-05-10T06:58:29.566Z,975.71
2018-05-10T06:59:29.516Z,975.71
2018-05-10T07:00:29.467Z,975.75
2018-05-10T07:01:29.412Z,975.76
2018-05-10T07:02:29.360Z,975.71
2018-05-10T07:03:29.310Z,975.75
2018-05-10T07:04:29.257Z,975.76
2018-05-10T07:05:29.209Z,975.76
2018-05-10T07:06:29.158Z,975.73
2018-05-10T07:07:29.106Z,975.74
2018-05-10T07:08:29.055Z,975.75
2018-05-10T07:09:29.132Z,975.69
2018-05-10T07:10:28.948Z,975.72
2018-05-10T07:11:28.898Z,975.74
2018-05-10T07:12:28.847Z,975.72
2018-05-10T07:13:28.795Z,975.77
2018-05-10T07:14:28.744Z,975.77
2018-05-10T07:15:28.695Z,975.74
2018-05-10T07:16:28.642Z,975.79
2018-05-10T07:17:28.590Z,975.81
2018-05-10T07:18:28.537Z,975.79
2018-05-10T07:19:28.489Z,975.82
2018-05-10T07:20:28.436Z,975.78
2018-05-10T07:21:28.386Z,975.84
2018-05-10T07:22:28.334Z,975.85
2018-05-10T07:23:28.283Z,975.84
2018-05-10T07:24:28.234Z,975.84
2018-05-10T07:25:28.269Z,975.85
2018-05-10T07:26:28.132Z,975.86
2018-05-10T07:27:28.081Z,975.87
2018-05-10T07:28:28.029Z,975.85
2018-05-10T07:29:27.976Z,975.85
2018-05-10T07:30:27.929Z,975.89
2018-05-10T07:31:27.874Z,975.89
2018-05-10T07:32:27.824Z,975.85
2018-05-10T07:33:27.772Z,975.90
2018-05-10T07:34:27.722Z,975.85
2018-05-10T07:35:27.669Z,975.87
2018-05-10T07:36:27.618Z,975.93
2018-05-10T07:37:27.570Z,975.92
2018-05-10T07:38:27.519Z,975.92
2018-05-10T07:39:27.466Z,975.94
2018-05-10T07:40:27.414Z,975.93
2018-05-10T07:41:27.364Z,975.95
2018-05-10T07:42:27.319Z,975.95
2018-05-10T07:43:27.262Z,975.98
2018-05-10T07:44:27.211Z,975.99
2018-05-10T07:45:27.159Z,975.98
2018-05-10T07:46:27.109Z,976.03
2018-05-10T07:47:27.113Z,976.06
2018-05-10T07:48:27.009Z,976.02
2018-05-10T07:49:26.955Z,976.08
2018-05-10T07:50:26.904Z,976.10
2018-05-10T07:51:26.857Z,976.12
2018-05-10T07:52:26.802Z,976.15
2018-05-10T07:53:26.751Z,976.17
2018-05-10T07:54:26.704Z,976.16
2018-05-10T07:55:26.654Z,976.20
2018-05-10T07:56:26.598Z,976.19
2018-05-10T07:57:26.548Z,976.26
2018-05-10T07:58:26.496Z,976.29
2018-05-10T07:59:26.445Z,976.37
2018-05-10T08:00:26.398Z,976.32
2018-05-10T08:01:26.349Z,976.37
2018-05-10T08:02:26.293Z,976.40
2018-05-10T08:03:26.247Z,976.43
2018-05-10T08:04:26.191Z,976.40
2018-05-10T08:05:26.141Z,976.51
2018-05-10T08:06:26.090Z,976.48
2018-05-10T08:07:26.041Z,976.59
2018-05-10T08:08:25.990Z,976.61
2018-05-10T08:09:25.939Z,976.63
2018-05-10T08:10:25.886Z,976.60
2018-05-10T08:11:26.765Z,976.60
2018-05-10T08:12:25.785Z,976.63
2018-05-10T08:13:25.735Z,976.65
2018-05-10T08:14:25.683Z,976.64
2018-05-10T08:15:25.634Z,976.64
2018-05-10T08:16:25.585Z,976.62
2018-05-10T08:17:25.531Z,976.64
2018-05-10T08:18:25.479Z,976.63
2018-05-10T08:19:25.428Z,976.66
2018-05-10T08:20:25.380Z,976.67
2018-05-10T08:21:25.327Z,976.69
2018-05-10T08:22:25.276Z,976.70
2018-05-10T08:23:25.227Z,976.76
2018-05-10T08:24:25.174Z,976.77
2018-05-10T08:25:25.124Z,976.78
2018-05-10T08:26:25.073Z,976.80
2018-05-10T08:27:25.025Z,976.85
2018-05-10T08:28:24.969Z,976.83
2018-05-10T08:29:24.919Z,976.83
2018-05-10T08:30:24.870Z,976.89
2018-05-10T08:31:24.819Z,976.86
2018-05-10T08:32:24.767Z,976.90
2018-05-10T08:33:24.718Z,976.94
2018-05-10T08:34:24.664Z,976.86
2018-05-10T08:35:24.613Z,976.92
2018-05-10T08:36:24.596Z,976.94
2018-05-10T08:37:24.513Z,976.96
2018-05-10T08:38:24.460Z,977.00
2018-05-10T08:39:24.413Z,977.01
2018-05-10T08:40:24.359Z,976.99
2018-05-10T08:41:24.308Z,977.01
2018-05-10T08:42:24.257Z,977.04
2018-05-10T08:43:24.208Z,977.02
2018-05-10T08:44:24.155Z,977.05
2018-05-10T08:45:24.104Z,977.06
2018-05-10T08:46:24.054Z,977.09
2018-05-10T08:47:24.002Z,977.14
2018-05-10T08:48:23.950Z,977.18
2018-05-10T08:49:23.900Z,977.17
2018-05-10T08:50:23.847Z,977.17
2018-05-10T08:51:23.798Z,977.19
2018-05-10T08:52:23.745Z,977.17
2018-05-10T08:53:23.696Z,977.22
2018-05-10T08:54:23.643Z,977.21
2018-05-10T08:55:23.593Z,977.28
2018-05-10T08:56:23.542Z,977.26
2018-05-10T08:57:23.490Z,977.29
2018-05-10T08:58:23.442Z,977.36
2018-05-10T08:59:23.387Z,977.39
2018-05-10T09:00:23.337Z,977.36
2018-05-10T09:01:23.286Z,977.35
2018-05-10T09:02:23.233Z,977.39
2018-05-10T09:03:23.186Z,977.39
2018-05-10T09:04:23.132Z,977.40
2018-05-10T09:05:23.080Z,977.39
2018-05-10T09:06:23.028Z,977.45
2018-05-10T09:07:22.986Z,977.44
2018-05-10T09:08:22.926Z,977.51
2018-05-10T09:09:22.876Z,977.55
2018-05-10T09:10:22.824Z,977.57
2018-05-10T09:11:22.772Z,977.63
2018-05-10T09:12:22.720Z,977.56
2018-05-10T09:13:22.672Z,977.59
2018-05-10T09:14:22.622Z,977.61
2018-05-10T09:15:22.564Z,977.58
2018-05-10T09:16:22.516Z,977.66
2018-05-10T09:17:22.462Z,977.66
2018-05-10T09:18:22.408Z,977.66
2018-05-10T09:19:22.357Z,977.68
2018-05-10T09:20:22.356Z,977.75
2018-05-10T09:21:22.255Z,977.70
2018-05-10T09:22:22.204Z,977.73
2018-05-10T09:23:22.149Z,977.75
2018-05-10T09:24:22.097Z,977.75
2018-05-10T09:25:22.047Z,977.82
2018-05-10T09:26:21.993Z,977.80
2018-05-10T09:27:21.940Z,977.80
2018-05-10T09:28:21.895Z,977.85
2018-05-10T09:29:21.835Z,977.83
2018-05-10T09:30:21.785Z,977.87
2018-05-10T09:31:21.730Z,977.87
2018-05-10T09:32:21.680Z,977.84
2018-05-10T09:33:21.627Z,977.88
2018-05-10T09:34:21.574Z,977.83
2018-05-10T09:35:21.529Z,977.90
2018-05-10T09:36:21.476Z,977.88
2018-05-10T09:37:21.417Z,977.88
2018-05-10T09:38:21.366Z,977.88
2018-05-10T09:39:21.345Z,977.90
2018-05-10T09:40:21.259Z,977.84
2018-05-10T09:41:21.210Z,977.91
2018-05-10T09:42:21.154Z,977.93
2018-05-10T09:43:21.103Z,977.93
2018-05-10T09:44:21.048Z,977.94
2018-05-10T09:45:20.998Z,977.96
2018-05-10T09:46:20.957Z,977.98
2018-05-10T09:47:20.894Z,978.02
2018-05-10T09:48:20.841Z,978.04
2018-05-10T09:49:20.793Z,978.01
2018-05-10T09:50:20.736Z,978.02
2018-05-10T09:51:20.690Z,978.06
2018-05-10T09:52:20.634Z,978.05
2018-05-10T09:53:20.580Z,978.09
2018-05-10T09:54:20.525Z,978.12
2018-05-10T09:55:20.496Z,978.06
2018-05-10T09:56:20.425Z,978.14
2018-05-10T09:57:20.366Z,978.10
2018-05-10T09:58:20.315Z,978.12
2018-05-10T09:59:20.262Z,978.10
2018-05-10T10:00:20.213Z,978.13
2018-05-10T10:01:20.162Z,978.08
2018-05-10T10:02:20.104Z,978.09
2018-05-10T10:03:20.052Z,978.12
2018-05-10T10:04:20.001Z,978.17
2018-05-10T10:05:19.948Z,978.22
2018-05-10T10:06:19.990Z,978.21
2018-05-10T10:07:19.842Z,978.19
2018-05-10T10:08:19.791Z,978.19
2018-05-10T10:09:19.739Z,978.30
2018-05-10T10:10:19.685Z,978.23
2018-05-10T10:11:19.633Z,978.28
2018-05-10T10:12:19.581Z,978.31
2018-05-10T10:13:19.530Z,978.37
2018-05-10T10:14:19.476Z,978.36
2018-05-10T10:15:19.424Z,978.33
2018-05-10T10:16:19.372Z,978.35
2018-05-10T10:17:19.322Z,978.37
2018-05-10T10:18:19.289Z,978.46
2018-05-10T10:19:19.217Z,978.39
2018-05-10T10:20:19.164Z,978.40
2018-05-10T10:21:19.111Z,978.40
2018-05-10T10:22:19.062Z,978.37
2018-05-10T10:23:19.008Z,978.40
2018-05-10T10:24:18.956Z,978.37
2018-05-10T10:25:18.997Z,978.35
2018-05-10T10:26:18.853Z,978.41
2018-05-10T10:27:18.840Z,978.35
2018-05-10T10:28:18.751Z,978.39
2018-05-10T10:29:18.699Z,978.37
2018-05-10T10:30:18.647Z,978.37
2018-05-10T10:31:18.596Z,978.35
2018-05-10T10:32:18.634Z,978.36
2018-05-10T10:33:18.493Z,978.33
2018-05-10T10:34:18.444Z,978.36
2018-05-10T10:35:18.394Z,978.38
2018-05-10T10:36:18.340Z,978.33
2018-05-10T10:37:18.290Z,978.35
2018-05-10T10:38:18.295Z,978.39
2018-05-10T10:39:18.187Z,978.38
2018-05-10T10:40:18.143Z,978.42
2018-05-10T10:41:18.085Z,978.41
2018-05-10T10:42:18.036Z,978.40
2018-05-10T10:43:17.984Z,978.43
2018-05-10T10:44:17.932Z,978.43
2018-05-10T10:45:17.884Z,978.43
2018-05-10T10:46:17.838Z,978.38
2018-05-10T10:47:17.779Z,978.39
2018-05-10T10:48:17.729Z,978.40
2018-05-10T10:49:17.679Z,978.52
2018-05-10T10:50:17.627Z,978.50
2018-05-10T10:51:17.582Z,978.57
2018-05-10T10:52:17.526Z,978.55
2018-05-10T10:53:17.474Z,978.56
2018-05-10T10:54:17.424Z,978.59
2018-05-10T10:55:17.375Z,978.56
2018-05-10T10:56:17.321Z,978.57
2018-05-10T10:57:17.281Z,978.55
2018-05-10T10:58:17.222Z,978.55
2018-05-10T10:59:17.169Z,978.57
2018-05-10T11:00:17.116Z,978.55
2018-05-10T11:01:17.067Z,978.55
2018-05-10T11:02:17.015Z,978.66
2018-05-10T11:03:16.961Z,978.63
2018-05-10T11:04:16.915Z,978.64
2018-05-10T11:05:16.864Z,978.65
2018-05-10T11:06:16.811Z,978.64
2018-05-10T11:07:16.757Z,978.69
2018-05-10T11:08:16.706Z,978.72
2018-05-10T11:09:16.706Z,978.72
2018-05-10T11:10:16.604Z,978.71
2018-05-10T11:11:16.552Z,978.75
2018-05-10T11:12:16.503Z,978.73
2018-05-10T11:13:16.453Z,978.74
2018-05-10T11:14:16.399Z,978.73
2018-05-10T11:15:16.352Z,978.70
2018-05-10T11:16:16.297Z,978.71
2018-05-10T11:17:16.245Z,978.73
2018-05-10T11:18:16.197Z,978.74
2018-05-10T11:19:16.142Z,978.77
2018-05-10T11:20:16.091Z,978.83
2018-05-10T11:21:16.042Z,978.79
2018-05-10T11:22:15.989Z,978.81
2018-05-10T11:23:15.937Z,978.80
2018-05-10T11:24:15.894Z,978.80
2018-05-10T11:25:15.834Z,978.83
2018-05-10T11:26:15.782Z,978.85
2018-05-10T11:27:15.758Z,978.86
2018-05-10T11:28:15.681Z,978.82
2018-05-10T11:29:15.631Z,978.92
2018-05-10T11:30:15.578Z,978.87
2018-05-10T11:31:15.536Z,978.87
2018-05-10T11:32:15.477Z,978.94
2018-05-10T11:33:15.508Z,978.96
2018-05-10T11:34:15.372Z,978.93
2018-05-10T11:35:15.319Z,978.99
2018-05-10T11:36:15.273Z,979.00
2018-05-10T11:37:15.215Z,979.01
2018-05-10T11:38:15.162Z,979.03
2018-05-10T11:39:15.111Z,979.03
2018-05-10T11:40:15.060Z,979.07
2018-05-10T11:41:15.008Z,979.07
2018-05-10T11:42:14.960Z,979.08
2018-05-10T11:43:14.904Z,979.06
2018-05-10T11:44:14.850Z,979.08
2018-05-10T11:45:14.800Z,979.12
2018-05-10T11:46:14.747Z,979.07
2018-05-10T11:47:14.695Z,979.03
2018-05-10T11:48:14.644Z,979.04
2018-05-10T11:49:14.592Z,979.06
2018-05-10T11:50:14.539Z,979.02
2018-05-10T11:51:14.486Z,979.02
2018-05-10T11:52:14.437Z,979.07
2018-05-10T11:53:14.384Z,979.06
2018-05-10T11:54:14.331Z,979.08
2018-05-10T11:55:14.280Z,979.04
2018-05-10T11:56:14.229Z,979.00
2018-05-10T11:57:14.226Z,979.04
2018-05-10T11:58:14.128Z,979.05
2018-05-10T11:59:14.074Z,979.08
2018-05-10T12:00:14.030Z,979.04
2018-05-10T12:01:13.972Z,979.01
2018-05-10T12:02:13.921Z,979.02
2018-05-10T12:03:13.869Z,978.95
2018-05-10T12:04:13.823Z,978.90
2018-05-10T12:05:13.770Z,978.92
2018-05-10T12:06:13.717Z,978.97
2018-05-10T12:07:13.666Z,978.96
2018-05-10T12:08:13.618Z,978.98
2018-05-10T12:09:13.563Z,978.97
2018-05-10T12:10:13.512Z,979.02
2018-05-10T12:11:13.461Z,979.06
2018-05-10T12:12:13.411Z,979.04
2018-05-10T12:13:13.361Z,979.04
2018-05-10T12:14:13.310Z,979.07
2018-05-10T12:15:13.259Z,979.07
2018-05-10T12:16:13.209Z,979.01
2018-05-10T12:17:13.160Z,978.98
2018-05-10T12:18:13.109Z,979.01
2018-05-10T12:19:13.132Z,978.99
2018-05-10T12:20:13.006Z,979.03
2018-05-10T12:21:12.957Z,979.01
2018-05-10T12:22:12.905Z,978.98
2018-05-10T12:23:12.856Z,979.04
2018-05-10T12:24:12.811Z,979.02
2018-05-10T12:25:12.754Z,979.01
2018-05-10T12:26:12.703Z,979.05
2018-05-10T12:27:12.655Z,979.03
2018-05-10T12:28:12.606Z,979.07